Terminal Aerodrome Forecast
Issued by NWS Cleveland, OH

Home | Current Version | Previous Version | Graphics & Text | Print | Product List | Glossary Off
Versions: 1 2 3 4 5 6 7 8 9 10 11 12 13 14 15 16 17 18 19 20 21 22 23 24 25 26 27 28 29 30 31

000
FTUS41 KCLE 272332
TAFCLE
TAF
KCLE 272332Z 2800/2906 03012KT P6SM OVC200
     FM280300 06007KT P6SM OVC080
     FM281000 08010KT P6SM -SHRA OVC035
     FM281500 06012KT 2SM -SHRA BR OVC007
     FM281700 04008KT 4SM BR OVC007
     FM290000 03012KT P6SM OVC007
     FM290200 05007KT 6SM BR OVC007=

USA.gov is the U.S. government's official web portal to all federal, state and local government web resources and services.